createdAt,value
2022-08-12T00:00:02.354Z,19.58
2022-08-12T00:02:28.587Z,19.53
2022-08-12T00:04:54.795Z,19.52
2022-08-12T00:07:21.022Z,19.49
2022-08-12T00:09:47.242Z,19.45
2022-08-12T00:12:15.619Z,19.44
2022-08-12T00:14:41.934Z,19.42
2022-08-12T00:17:08.157Z,19.39
2022-08-12T00:19:34.385Z,19.36
2022-08-12T00:22:00.603Z,19.34
2022-08-12T00:24:26.837Z,19.31
2022-08-12T00:26:53.050Z,19.28
2022-08-12T00:29:19.271Z,19.24
2022-08-12T00:31:45.492Z,19.20
2022-08-12T00:34:11.724Z,19.14
2022-08-12T00:36:37.951Z,19.10
2022-08-12T00:39:04.453Z,19.04
2022-08-12T00:41:30.676Z,19.01
2022-08-12T00:43:56.924Z,18.95
2022-08-12T00:46:23.152Z,18.89
2022-08-12T00:48:49.399Z,18.84
2022-08-12T00:51:15.610Z,18.78
2022-08-12T00:53:42.518Z,18.72
2022-08-12T00:56:08.753Z,18.66
2022-08-12T00:58:34.995Z,18.61
2022-08-12T01:01:01.251Z,18.55
2022-08-12T01:03:27.535Z,18.49
2022-08-12T01:05:53.764Z,18.47
2022-08-12T01:08:20.045Z,18.44
2022-08-12T01:10:46.253Z,18.41
2022-08-12T01:13:19.831Z,18.38
2022-08-12T01:15:46.647Z,18.37
2022-08-12T01:18:12.897Z,18.35
2022-08-12T01:20:39.123Z,18.33
2022-08-12T01:23:05.356Z,18.32
2022-08-12T01:25:31.622Z,18.31
2022-08-12T01:27:57.884Z,18.29
2022-08-12T01:30:24.108Z,18.24
2022-08-12T01:32:50.333Z,18.18
2022-08-12T01:35:16.633Z,18.12
2022-08-12T01:37:42.884Z,18.05
2022-08-12T01:40:33.444Z,17.98
2022-08-12T01:42:55.339Z,17.91
2022-08-12T01:45:21.559Z,17.89
2022-08-12T01:47:47.892Z,17.87
2022-08-12T01:50:14.108Z,17.83
2022-08-12T01:52:40.617Z,17.80
2022-08-12T01:55:07.029Z,17.77
2022-08-12T01:57:58.732Z,17.73
2022-08-12T02:00:19.596Z,17.70
2022-08-12T02:02:45.899Z,17.66
2022-08-12T02:05:12.178Z,17.66
2022-08-12T02:07:38.566Z,17.67
2022-08-12T02:10:04.790Z,17.69
2022-08-12T02:12:31.423Z,17.70
2022-08-12T02:14:57.693Z,17.70
2022-08-12T02:17:54.823Z,17.69
2022-08-12T02:20:11.644Z,17.68
2022-08-12T02:22:38.031Z,17.65
2022-08-12T02:25:04.277Z,17.62
2022-08-12T02:27:30.524Z,17.57
2022-08-12T02:29:56.736Z,17.54
2022-08-12T02:32:22.976Z,17.47
2022-08-12T02:34:49.192Z,17.40
2022-08-12T02:37:15.449Z,17.35
2022-08-12T02:39:41.726Z,17.31
2022-08-12T02:42:08.017Z,17.27
2022-08-12T02:44:34.271Z,17.23
2022-08-12T02:47:00.508Z,17.18
2022-08-12T02:49:26.731Z,17.12
2022-08-12T02:51:52.959Z,17.06
2022-08-12T02:54:19.201Z,17.01
2022-08-12T02:56:47.200Z,17.01
2022-08-12T02:59:17.827Z,16.99
2022-08-12T03:01:48.172Z,16.93
2022-08-12T03:04:20.492Z,16.88
2022-08-12T03:06:47.499Z,16.86
2022-08-12T03:09:13.718Z,16.84
2022-08-12T03:11:47.766Z,16.82
2022-08-12T03:14:15.254Z,16.78
2022-08-12T03:16:41.498Z,16.72
2022-08-12T03:19:07.724Z,16.66
2022-08-12T03:21:54.680Z,16.63
2022-08-12T03:24:20.192Z,16.60
2022-08-12T03:26:46.442Z,16.58
2022-08-12T03:29:12.655Z,16.55
2022-08-12T03:31:38.903Z,16.52
2022-08-12T03:34:05.111Z,16.45
2022-08-12T03:36:31.333Z,16.41
2022-08-12T03:38:57.542Z,16.42
2022-08-12T03:41:23.756Z,16.40
2022-08-12T03:43:49.953Z,16.41
2022-08-12T03:46:16.200Z,16.41
2022-08-12T03:48:42.413Z,16.40
2022-08-12T03:51:08.643Z,16.38
2022-08-12T03:53:34.884Z,16.36
2022-08-12T03:56:01.105Z,16.36
2022-08-12T03:58:27.332Z,16.37
2022-08-12T04:00:53.605Z,16.37
2022-08-12T04:03:19.902Z,16.35
2022-08-12T04:05:55.690Z,16.33
2022-08-12T04:08:22.774Z,16.32
2022-08-12T04:10:48.984Z,16.30
2022-08-12T04:13:15.212Z,16.28
2022-08-12T04:15:41.418Z,16.26
2022-08-12T04:18:08.089Z,16.26
2022-08-12T04:20:34.462Z,16.21
2022-08-12T04:23:00.692Z,16.16
2022-08-12T04:25:26.905Z,16.14
2022-08-12T04:27:53.156Z,16.13
2022-08-12T04:30:32.608Z,16.14
2022-08-12T04:32:59.720Z,16.18
2022-08-12T04:35:25.948Z,16.23
2022-08-12T04:37:59.003Z,16.26
2022-08-12T04:40:28.535Z,16.30
2022-08-12T04:42:55.118Z,16.34
2022-08-12T04:45:22.590Z,16.35
2022-08-12T04:47:49.095Z,16.38
2022-08-12T04:50:35.296Z,16.40
2022-08-12T04:53:01.592Z,16.43
2022-08-12T04:55:28.029Z,16.48
2022-08-12T04:57:54.297Z,16.51
2022-08-12T05:00:20.545Z,16.56
2022-08-12T05:02:47.155Z,16.59
2022-08-12T05:05:13.476Z,16.63
2022-08-12T05:07:47.825Z,16.66
2022-08-12T05:10:21.317Z,16.72
2022-08-12T05:12:59.481Z,16.77
2022-08-12T05:15:29.177Z,16.82
2022-08-12T05:17:56.211Z,16.88
2022-08-12T05:20:26.236Z,16.94
2022-08-12T05:22:57.505Z,17.01
2022-08-12T05:25:25.317Z,17.09
2022-08-12T05:27:59.211Z,17.17
2022-08-12T05:30:25.987Z,17.25
2022-08-12T05:32:53.763Z,17.35
2022-08-12T05:35:20.123Z,17.43
2022-08-12T05:37:48.770Z,17.51
2022-08-12T05:40:15.233Z,17.59
2022-08-12T05:42:41.882Z,17.66
2022-08-12T05:45:08.518Z,17.76
2022-08-12T05:47:52.261Z,17.85
2022-08-12T05:50:19.439Z,17.96
2022-08-12T05:52:45.701Z,18.03
2022-08-12T05:55:14.612Z,18.12
2022-08-12T05:57:41.122Z,18.18
2022-08-12T06:00:07.451Z,18.27
2022-08-12T06:02:33.706Z,18.35
2022-08-12T06:05:00.016Z,18.42
2022-08-12T06:07:40.030Z,18.53
2022-08-12T06:10:12.808Z,18.61
2022-08-12T06:12:39.254Z,18.67
2022-08-12T06:15:05.631Z,18.73
2022-08-12T06:17:31.915Z,18.81
2022-08-12T06:20:26.632Z,18.89
2022-08-12T06:22:44.733Z,18.97
2022-08-12T06:25:11.160Z,19.04
2022-08-12T06:28:06.480Z,19.12
2022-08-12T06:30:36.868Z,19.21
2022-08-12T06:33:11.805Z,19.30
2022-08-12T06:35:49.781Z,19.42
2022-08-12T06:38:16.506Z,19.53
2022-08-12T06:40:42.771Z,19.62
2022-08-12T06:43:09.047Z,19.71
2022-08-12T06:45:46.175Z,19.83
2022-08-12T06:48:13.306Z,19.94
2022-08-12T06:50:40.269Z,20.04
2022-08-12T06:53:06.784Z,20.14
2022-08-12T06:55:33.084Z,20.25
2022-08-12T06:58:06.809Z,20.38
2022-08-12T07:00:36.377Z,20.50
2022-08-12T07:03:16.318Z,20.62
2022-08-12T07:05:48.874Z,20.72
2022-08-12T07:08:17.234Z,20.81
2022-08-12T07:10:43.538Z,20.90
2022-08-12T07:13:09.964Z,20.98
2022-08-12T07:15:36.291Z,21.07
2022-08-12T07:18:02.645Z,21.14
2022-08-12T07:20:51.167Z,21.23
2022-08-12T07:23:15.200Z,21.31
2022-08-12T07:25:41.855Z,21.38
2022-08-12T07:28:09.156Z,21.46
2022-08-12T07:30:42.852Z,21.56
2022-08-12T07:33:09.315Z,21.65
2022-08-12T07:35:35.637Z,21.73
2022-08-12T07:38:01.951Z,21.90
2022-08-12T07:40:28.416Z,22.08
2022-08-12T07:42:54.717Z,22.19
2022-08-12T07:45:20.963Z,22.27
2022-08-12T07:47:47.303Z,22.36
2022-08-12T07:50:13.600Z,22.45
2022-08-12T07:52:40.028Z,22.53
2022-08-12T07:55:06.545Z,22.63
2022-08-12T07:57:33.030Z,22.72
2022-08-12T07:59:59.385Z,22.83
2022-08-12T08:02:26.675Z,22.93
2022-08-12T08:04:53.577Z,23.00
2022-08-12T08:07:19.987Z,23.07
2022-08-12T08:09:46.301Z,23.14
2022-08-12T08:12:19.186Z,23.24
2022-08-12T08:14:45.947Z,23.35
2022-08-12T08:17:14.723Z,23.45
2022-08-12T08:20:02.961Z,23.52
2022-08-12T08:22:40.734Z,23.58
2022-08-12T08:25:34.826Z,23.61
2022-08-12T08:27:55.061Z,23.65
2022-08-12T08:30:21.379Z,23.68
2022-08-12T08:32:47.814Z,23.74
2022-08-12T08:35:14.035Z,23.77
2022-08-12T08:37:41.072Z,23.83
2022-08-12T08:40:07.733Z,23.89
2022-08-12T08:42:34.020Z,23.92
2022-08-12T08:45:00.362Z,23.96
2022-08-12T08:47:26.699Z,24.01
2022-08-12T08:49:53.033Z,24.06
2022-08-12T08:52:40.443Z,24.13
2022-08-12T08:55:05.524Z,24.25
2022-08-12T08:57:42.880Z,24.31
2022-08-12T09:00:10.758Z,24.32
2022-08-12T09:02:41.827Z,24.34
2022-08-12T09:05:24.889Z,24.39
2022-08-12T09:08:08.804Z,24.45
2022-08-12T09:10:38.266Z,24.55
2022-08-12T09:13:06.212Z,24.65
2022-08-12T09:15:35.843Z,24.76
2022-08-12T09:18:02.538Z,24.82
2022-08-12T09:20:31.583Z,24.82
2022-08-12T09:22:57.903Z,24.83
2022-08-12T09:25:26.202Z,24.91
2022-08-12T09:28:03.922Z,24.93
2022-08-12T09:30:42.028Z,24.99
2022-08-12T09:33:19.247Z,25.03
2022-08-12T09:36:04.510Z,25.09
2022-08-12T09:38:31.991Z,25.19
2022-08-12T09:42:08.824Z,25.22
2022-08-12T09:43:53.531Z,25.25
2022-08-12T09:46:25.416Z,25.23
2022-08-12T09:48:56.263Z,25.21
2022-08-12T09:51:23.485Z,25.28
2022-08-12T09:54:08.851Z,25.43
2022-08-12T09:56:58.210Z,25.56
2022-08-12T10:00:12.798Z,25.69
2022-08-12T10:02:44.049Z,25.83
2022-08-12T10:04:55.202Z,25.91
2022-08-12T10:07:24.831Z,25.95
2022-08-12T10:09:58.241Z,25.92
2022-08-12T10:12:32.884Z,26.06
2022-08-12T10:15:00.004Z,26.12
2022-08-12T10:17:26.393Z,26.19
2022-08-12T10:19:53.186Z,26.29
2022-08-12T10:22:36.821Z,26.43
2022-08-12T10:25:17.297Z,26.49
2022-08-12T10:28:03.927Z,26.45
2022-08-12T10:30:40.228Z,26.35
2022-08-12T10:33:18.981Z,26.25
2022-08-12T10:35:49.393Z,26.23
2022-08-12T10:38:33.283Z,26.25
2022-08-12T10:41:05.288Z,26.23
2022-08-12T10:43:54.327Z,26.26
2022-08-12T10:46:22.443Z,26.32
2022-08-12T10:49:05.747Z,26.47
2022-08-12T10:52:04.932Z,26.57
2022-08-12T10:54:29.446Z,26.50
2022-08-12T10:56:55.719Z,26.41
2022-08-12T11:00:30.158Z,26.47
2022-08-12T11:04:25.627Z,26.47
2022-08-12T11:04:55.256Z,26.37
2022-08-12T11:08:37.582Z,26.35
2022-08-12T11:10:08.141Z,26.39
2022-08-12T11:12:55.986Z,26.48
2022-08-12T11:15:32.657Z,26.52
2022-08-12T11:18:06.936Z,26.58
2022-08-12T11:20:38.742Z,26.68
2022-08-12T11:23:25.018Z,26.69
2022-08-12T11:25:58.123Z,26.66
2022-08-12T11:28:33.480Z,26.62
2022-08-12T11:31:01.779Z,26.62
2022-08-12T11:34:05.425Z,26.74
2022-08-12T11:36:14.757Z,27.00
2022-08-12T11:38:41.395Z,27.10
2022-08-12T11:41:09.166Z,27.25
2022-08-12T11:43:50.667Z,27.37
2022-08-12T11:46:21.861Z,27.44
2022-08-12T11:48:51.522Z,27.36
2022-08-12T11:51:19.095Z,27.27
2022-08-12T11:53:56.977Z,27.26
2022-08-12T11:56:24.880Z,27.30
2022-08-12T12:02:04.920Z,27.60
2022-08-12T12:04:31.726Z,27.53
2022-08-12T12:07:06.755Z,27.54
2022-08-12T12:09:52.235Z,27.42
2022-08-12T12:12:20.095Z,27.41
2022-08-12T12:14:47.785Z,27.49
2022-08-12T12:17:21.433Z,27.61
2022-08-12T12:19:48.483Z,27.64
2022-08-12T12:22:15.808Z,27.64
2022-08-12T12:24:49.588Z,27.69
2022-08-12T12:27:18.217Z,27.60
2022-08-12T12:30:17.818Z,27.52
2022-08-12T12:32:32.514Z,27.37
2022-08-12T12:35:14.474Z,27.40
2022-08-12T12:38:03.985Z,27.58
2022-08-12T12:40:31.617Z,27.74
2022-08-12T12:43:04.992Z,27.99
2022-08-12T12:45:32.388Z,28.22
2022-08-12T12:47:59.691Z,28.43
2022-08-12T12:50:35.334Z,28.67
2022-08-12T12:53:02.397Z,28.73
2022-08-12T12:55:35.544Z,28.77
2022-08-12T12:58:02.393Z,28.91
2022-08-12T13:00:28.663Z,28.99
2022-08-12T13:02:55.050Z,29.11
2022-08-12T13:05:21.342Z,29.28
2022-08-12T13:08:00.984Z,29.42
2022-08-12T13:10:32.045Z,29.42
2022-08-12T13:14:08.994Z,29.28
2022-08-12T13:15:49.234Z,29.06
2022-08-12T13:18:15.497Z,28.79
2022-08-12T13:20:43.246Z,28.65
2022-08-12T13:23:36.133Z,28.61
2022-08-12T13:25:56.678Z,28.60
2022-08-12T13:28:22.906Z,28.58
2022-08-12T13:30:54.806Z,28.75
2022-08-12T13:33:21.086Z,29.15
2022-08-12T13:36:05.901Z,29.46
2022-08-12T13:38:35.027Z,29.86
2022-08-12T13:41:01.647Z,30.27
2022-08-12T13:43:40.347Z,30.24
2022-08-12T13:46:06.963Z,30.24
2022-08-12T13:48:38.261Z,30.05
2022-08-12T13:51:04.526Z,29.98
2022-08-12T13:53:54.874Z,30.21
2022-08-12T13:56:16.945Z,30.66
2022-08-12T13:58:46.896Z,31.04
2022-08-12T14:01:19.077Z,31.41
2022-08-12T14:03:50.444Z,31.58
2022-08-12T14:06:17.890Z,31.63
2022-08-12T14:08:44.938Z,31.69
2022-08-12T14:11:16.252Z,31.70
2022-08-12T14:14:03.254Z,31.69
2022-08-12T14:16:37.834Z,31.78
2022-08-12T14:19:22.265Z,32.05
2022-08-12T14:21:59.425Z,32.33
2022-08-12T14:24:27.065Z,32.30
2022-08-12T14:26:53.501Z,32.01
2022-08-12T14:29:38.268Z,31.76
2022-08-12T14:32:07.200Z,31.62
2022-08-12T14:34:42.812Z,31.61
2022-08-12T14:37:13.119Z,31.69
2022-08-12T14:39:57.001Z,31.90
2022-08-12T14:42:23.447Z,31.99
2022-08-12T14:44:58.039Z,31.75
2022-08-12T14:47:26.345Z,31.57
2022-08-12T14:50:33.790Z,31.40
2022-08-12T14:54:40.426Z,31.48
2022-08-12T14:58:14.505Z,31.81
2022-08-12T15:00:44.713Z,31.93
2022-08-12T15:03:17.108Z,31.95
2022-08-12T15:06:05.420Z,31.80
2022-08-12T15:08:29.516Z,31.82
2022-08-12T15:10:57.663Z,31.89
2022-08-12T15:13:23.952Z,31.67
2022-08-12T15:15:52.051Z,31.69
2022-08-12T15:18:21.744Z,31.69
2022-08-12T15:20:48.986Z,31.78
2022-08-12T15:23:17.742Z,31.76
2022-08-12T15:25:47.816Z,31.69
2022-08-12T15:28:22.385Z,31.75
2022-08-12T15:30:49.222Z,31.88
2022-08-12T15:33:20.976Z,32.01
2022-08-12T15:35:53.102Z,32.20
2022-08-12T15:38:20.837Z,32.24
2022-08-12T15:40:48.342Z,32.35
2022-08-12T15:43:14.848Z,32.50
2022-08-12T15:46:01.065Z,32.50
2022-08-12T15:48:27.374Z,32.41
2022-08-12T15:50:56.800Z,32.48
2022-08-12T15:53:23.411Z,32.62
2022-08-12T15:55:53.484Z,32.40
2022-08-12T15:58:27.076Z,31.91
2022-08-12T16:00:53.530Z,31.69
2022-08-12T16:03:25.757Z,31.65
2022-08-12T16:06:12.229Z,31.68
2022-08-12T16:08:38.501Z,31.63
2022-08-12T16:11:14.942Z,31.53
2022-08-12T16:13:45.135Z,31.41
2022-08-12T16:16:22.757Z,31.32
2022-08-12T16:18:50.957Z,31.17
2022-08-12T16:21:51.257Z,30.84
2022-08-12T16:24:03.496Z,30.66
2022-08-12T16:26:32.628Z,30.47
2022-08-12T16:29:15.382Z,30.21
2022-08-12T16:31:42.488Z,29.96
2022-08-12T16:34:10.877Z,29.75
2022-08-12T16:36:52.459Z,29.54
2022-08-12T16:39:19.774Z,29.43
2022-08-12T16:41:46.376Z,29.30
2022-08-12T16:44:12.602Z,29.21
2022-08-12T16:46:57.999Z,29.17
2022-08-12T16:49:24.526Z,29.10
2022-08-12T16:51:51.716Z,29.11
2022-08-12T16:54:17.958Z,29.20
2022-08-12T16:56:55.176Z,29.27
2022-08-12T16:59:24.237Z,29.41
2022-08-12T17:01:50.624Z,29.59
2022-08-12T17:04:18.006Z,29.68
2022-08-12T17:06:44.826Z,29.82
2022-08-12T17:09:17.820Z,29.84
2022-08-12T17:11:44.658Z,29.91
2022-08-12T17:14:13.153Z,30.00
2022-08-12T17:16:39.406Z,30.09
2022-08-12T17:19:09.318Z,30.12
2022-08-12T17:21:41.224Z,30.07
2022-08-12T17:24:18.078Z,30.03
2022-08-12T17:26:49.610Z,30.00
2022-08-12T17:29:16.651Z,29.94
2022-08-12T17:32:00.313Z,29.76
2022-08-12T17:34:28.497Z,29.76
2022-08-12T17:36:54.743Z,29.72
2022-08-12T17:39:21.546Z,29.75
2022-08-12T17:41:56.795Z,29.68
2022-08-12T17:44:23.697Z,29.58
2022-08-12T17:46:53.977Z,29.44
2022-08-12T17:50:03.019Z,29.12
2022-08-12T17:52:06.643Z,28.81
2022-08-12T17:54:32.910Z,28.66
2022-08-12T17:56:59.157Z,28.56
2022-08-12T17:59:48.249Z,28.45
2022-08-12T18:02:13.751Z,28.27
2022-08-12T18:04:39.976Z,28.18
2022-08-12T18:07:26.187Z,28.05
2022-08-12T18:09:54.938Z,27.92
2022-08-12T18:12:24.560Z,27.83
2022-08-12T18:14:52.803Z,27.73
2022-08-12T18:17:20.121Z,27.63
2022-08-12T18:20:06.319Z,27.54
2022-08-12T18:22:33.966Z,27.45
2022-08-12T18:25:02.152Z,27.34
2022-08-12T18:27:44.387Z,27.23
2022-08-12T18:30:11.674Z,27.12
2022-08-12T18:32:58.347Z,27.03
2022-08-12T18:35:46.283Z,26.92
2022-08-12T18:38:10.879Z,26.82
2022-08-12T18:40:42.845Z,26.72
2022-08-12T18:43:14.942Z,26.60
2022-08-12T18:45:46.952Z,26.54
2022-08-12T18:48:13.705Z,26.44
2022-08-12T18:50:49.194Z,26.35
2022-08-12T18:53:30.954Z,26.25
2022-08-12T18:56:02.501Z,26.15
2022-08-12T18:58:30.380Z,26.07
2022-08-12T19:00:57.026Z,26.00
2022-08-12T19:03:38.805Z,25.93
2022-08-12T19:06:06.188Z,25.83
2022-08-12T19:08:32.503Z,25.76
2022-08-12T19:10:58.703Z,25.69
2022-08-12T19:13:25.250Z,25.62
2022-08-12T19:16:01.671Z,25.55
2022-08-12T19:18:29.268Z,25.48
2022-08-12T19:20:56.488Z,25.42
2022-08-12T19:23:22.685Z,25.36
2022-08-12T19:26:01.354Z,25.32
2022-08-12T19:28:30.288Z,25.27
2022-08-12T19:31:02.020Z,25.19
2022-08-12T19:33:28.246Z,25.13
2022-08-12T19:36:07.689Z,25.06
2022-08-12T19:38:46.833Z,25.01
2022-08-12T19:41:23.138Z,24.95
2022-08-12T19:44:00.784Z,24.90
2022-08-12T19:46:35.565Z,24.85
2022-08-12T19:49:04.093Z,24.79
2022-08-12T19:51:30.569Z,24.73
2022-08-12T19:53:59.729Z,24.69
2022-08-12T19:56:25.965Z,24.63
2022-08-12T19:58:52.176Z,24.58
2022-08-12T20:01:20.156Z,24.54
2022-08-12T20:03:46.433Z,24.50
2022-08-12T20:06:29.308Z,24.44
2022-08-12T20:08:57.633Z,24.39
2022-08-12T20:12:09.896Z,24.36
2022-08-12T20:14:10.048Z,24.31
2022-08-12T20:16:57.408Z,24.27
2022-08-12T20:19:23.390Z,24.21
2022-08-12T20:21:49.862Z,24.14
2022-08-12T20:24:16.080Z,24.08
2022-08-12T20:26:45.509Z,24.02
2022-08-12T20:29:12.379Z,23.96
2022-08-12T20:31:38.599Z,23.89
2022-08-12T20:34:04.824Z,23.82
2022-08-12T20:36:42.469Z,23.69
2022-08-12T20:39:34.182Z,23.61
2022-08-12T20:41:56.505Z,23.57
2022-08-12T20:44:22.709Z,23.49
2022-08-12T20:46:48.929Z,23.42
2022-08-12T20:49:17.757Z,23.35
2022-08-12T20:51:55.812Z,23.29
2022-08-12T20:54:22.425Z,23.23
2022-08-12T20:56:48.698Z,23.20
2022-08-12T20:59:20.369Z,23.13
2022-08-12T21:01:48.573Z,23.08
2022-08-12T21:04:15.220Z,23.04
2022-08-12T21:06:42.283Z,22.99
2022-08-12T21:09:08.485Z,22.96
2022-08-12T21:11:35.773Z,22.94
2022-08-12T21:14:03.933Z,22.90
2022-08-12T21:16:31.472Z,22.86
2022-08-12T21:19:08.017Z,22.82
2022-08-12T21:21:46.851Z,22.77
2022-08-12T21:24:16.661Z,22.75
2022-08-12T21:26:42.890Z,22.70
2022-08-12T21:29:19.697Z,22.68
2022-08-12T21:32:39.665Z,22.65
2022-08-12T21:34:32.296Z,22.61
2022-08-12T21:36:58.524Z,22.58
2022-08-12T21:39:35.909Z,22.54
2022-08-12T21:42:06.681Z,22.48
2022-08-12T21:45:45.886Z,22.42
2022-08-12T21:47:22.018Z,22.37
2022-08-12T21:49:55.374Z,22.35
2022-08-12T21:52:22.616Z,22.30
2022-08-12T21:55:00.607Z,22.25
2022-08-12T21:57:26.827Z,22.20
2022-08-12T21:59:53.996Z,22.14
2022-08-12T22:02:20.414Z,22.10
2022-08-12T22:04:49.768Z,22.02
2022-08-12T22:07:18.587Z,21.96
2022-08-12T22:09:45.276Z,21.88
2022-08-12T22:12:11.881Z,21.83
2022-08-12T22:14:38.260Z,21.76
2022-08-12T22:17:06.446Z,21.75
2022-08-12T22:19:33.710Z,21.74
2022-08-12T22:22:04.129Z,21.72
2022-08-12T22:24:31.222Z,21.70
2022-08-12T22:26:57.444Z,21.67
2022-08-12T22:29:26.696Z,21.62
2022-08-12T22:31:53.612Z,21.58
2022-08-12T22:34:19.854Z,21.54
2022-08-12T22:36:46.152Z,21.50
2022-08-12T22:39:16.090Z,21.46
2022-08-12T22:41:42.721Z,21.40
2022-08-12T22:44:08.995Z,21.35
2022-08-12T22:46:36.812Z,21.32
2022-08-12T22:49:03.404Z,21.26
2022-08-12T22:51:42.938Z,21.23
2022-08-12T22:54:35.024Z,21.21
2022-08-12T22:57:01.806Z,21.18
2022-08-12T22:59:49.639Z,21.13
2022-08-12T23:02:15.235Z,21.06
2022-08-12T23:04:41.719Z,21.04
2022-08-12T23:07:09.346Z,21.01
2022-08-12T23:09:44.807Z,20.98
2022-08-12T23:12:22.711Z,20.93
2022-08-12T23:14:51.483Z,20.91
2022-08-12T23:17:21.227Z,20.88
2022-08-12T23:20:03.930Z,20.80
2022-08-12T23:22:36.097Z,20.76
2022-08-12T23:25:03.395Z,20.74
2022-08-12T23:27:44.231Z,20.73
2022-08-12T23:30:19.072Z,20.69
2022-08-12T23:32:54.574Z,20.67
2022-08-12T23:35:45.547Z,20.66
2022-08-12T23:38:12.265Z,20.65
2022-08-12T23:40:57.517Z,20.65
2022-08-12T23:43:23.789Z,20.64
2022-08-12T23:46:00.950Z,20.64
2022-08-12T23:48:31.504Z,20.63
2022-08-12T23:50:58.046Z,20.64
2022-08-12T23:53:24.271Z,20.62
2022-08-12T23:55:58.700Z,20.61
2022-08-12T23:58:26.323Z,20.61
